sensor_id;sensor_type;location;lat;lon;timestamp;P1;durP1;ratioP1;P2;durP2;ratioP2
74707;SDS011;63360;50.104;8.074;2023-11-21T00:00:59;2.53;;;1.10;;
74707;SDS011;63360;50.104;8.074;2023-11-21T00:03:30;3.25;;;0.90;;
74707;SDS011;63360;50.104;8.074;2023-11-21T00:05:57;6.23;;;2.53;;
74707;SDS011;63360;50.104;8.074;2023-11-21T00:08:23;3.88;;;1.95;;
74707;SDS011;63360;50.104;8.074;2023-11-21T00:10:49;3.10;;;1.35;;
74707;SDS011;63360;50.104;8.074;2023-11-21T00:13:17;4.20;;;1.30;;
74707;SDS011;63360;50.104;8.074;2023-11-21T00:15:44;3.53;;;1.40;;
74707;SDS011;63360;50.104;8.074;2023-11-21T00:18:10;3.03;;;1.17;;
74707;SDS011;63360;50.104;8.074;2023-11-21T00:20:36;4.43;;;1.42;;
74707;SDS011;63360;50.104;8.074;2023-11-21T00:23:03;2.80;;;1.10;;
74707;SDS011;63360;50.104;8.074;2023-11-21T00:25:29;2.33;;;0.90;;
74707;SDS011;63360;50.104;8.074;2023-11-21T00:27:57;2.97;;;0.80;;
74707;SDS011;63360;50.104;8.074;2023-11-21T00:30:23;3.08;;;1.10;;
74707;SDS011;63360;50.104;8.074;2023-11-21T00:32:50;3.72;;;1.70;;
74707;SDS011;63360;50.104;8.074;2023-11-21T00:35:16;5.70;;;2.10;;
74707;SDS011;63360;50.104;8.074;2023-11-21T00:37:42;3.92;;;1.73;;
74707;SDS011;63360;50.104;8.074;2023-11-21T00:40:09;3.47;;;1.42;;
74707;SDS011;63360;50.104;8.074;2023-11-21T00:42:38;3.35;;;1.23;;
74707;SDS011;63360;50.104;8.074;2023-11-21T00:45:05;2.60;;;1.00;;
74707;SDS011;63360;50.104;8.074;2023-11-21T00:47:32;2.90;;;0.90;;
74707;SDS011;63360;50.104;8.074;2023-11-21T00:49:59;2.80;;;0.60;;
74707;SDS011;63360;50.104;8.074;2023-11-21T00:52:25;1.80;;;0.40;;
74707;SDS011;63360;50.104;8.074;2023-11-21T00:54:52;0.70;;;0.30;;
74707;SDS011;63360;50.104;8.074;2023-11-21T00:57:18;1.08;;;0.32;;
74707;SDS011;63360;50.104;8.074;2023-11-21T00:59:44;0.87;;;0.40;;
74707;SDS011;63360;50.104;8.074;2023-11-21T01:02:11;1.00;;;0.30;;
74707;SDS011;63360;50.104;8.074;2023-11-21T01:04:37;1.00;;;0.40;;
74707;SDS011;63360;50.104;8.074;2023-11-21T01:07:04;1.05;;;0.40;;
74707;SDS011;63360;50.104;8.074;2023-11-21T01:09:31;0.75;;;0.35;;
74707;SDS011;63360;50.104;8.074;2023-11-21T01:11:58;1.07;;;0.20;;
74707;SDS011;63360;50.104;8.074;2023-11-21T01:14:26;1.75;;;0.20;;
74707;SDS011;63360;50.104;8.074;2023-11-21T01:16:53;0.70;;;0.20;;
74707;SDS011;63360;50.104;8.074;2023-11-21T01:19:19;2.13;;;0.43;;
74707;SDS011;63360;50.104;8.074;2023-11-21T01:21:46;1.00;;;0.30;;
74707;SDS011;63360;50.104;8.074;2023-11-21T01:24:13;1.80;;;0.60;;
74707;SDS011;63360;50.104;8.074;2023-11-21T01:26:39;2.03;;;0.60;;
74707;SDS011;63360;50.104;8.074;2023-11-21T01:29:06;1.70;;;0.60;;
74707;SDS011;63360;50.104;8.074;2023-11-21T01:31:32;2.20;;;0.90;;
74707;SDS011;63360;50.104;8.074;2023-11-21T01:33:58;3.17;;;0.47;;
74707;SDS011;63360;50.104;8.074;2023-11-21T01:36:29;0.67;;;0.33;;
74707;SDS011;63360;50.104;8.074;2023-11-21T01:38:59;0.70;;;0.30;;
74707;SDS011;63360;50.104;8.074;2023-11-21T01:41:28;0.80;;;0.30;;
74707;SDS011;63360;50.104;8.074;2023-11-21T01:43:55;1.20;;;0.47;;
74707;SDS011;63360;50.104;8.074;2023-11-21T01:46:22;3.42;;;0.70;;
74707;SDS011;63360;50.104;8.074;2023-11-21T01:48:49;1.03;;;0.33;;
74707;SDS011;63360;50.104;8.074;2023-11-21T01:51:16;2.35;;;0.50;;
74707;SDS011;63360;50.104;8.074;2023-11-21T01:53:43;1.80;;;0.80;;
74707;SDS011;63360;50.104;8.074;2023-11-21T01:56:12;2.30;;;0.90;;
74707;SDS011;63360;50.104;8.074;2023-11-21T01:58:40;3.63;;;1.10;;
74707;SDS011;63360;50.104;8.074;2023-11-21T02:01:07;1.97;;;0.70;;
74707;SDS011;63360;50.104;8.074;2023-11-21T02:03:33;2.17;;;0.88;;
74707;SDS011;63360;50.104;8.074;2023-11-21T02:06:00;2.55;;;1.00;;
74707;SDS011;63360;50.104;8.074;2023-11-21T02:08:26;3.55;;;1.48;;
74707;SDS011;63360;50.104;8.074;2023-11-21T02:10:53;5.90;;;1.90;;
74707;SDS011;63360;50.104;8.074;2023-11-21T02:13:19;4.37;;;1.60;;
74707;SDS011;63360;50.104;8.074;2023-11-21T02:15:46;3.42;;;1.30;;
74707;SDS011;63360;50.104;8.074;2023-11-21T02:18:13;2.90;;;1.15;;
74707;SDS011;63360;50.104;8.074;2023-11-21T02:20:41;3.53;;;1.30;;
74707;SDS011;63360;50.104;8.074;2023-11-21T02:23:08;5.63;;;1.25;;
74707;SDS011;63360;50.104;8.074;2023-11-21T02:25:35;3.47;;;0.90;;
74707;SDS011;63360;50.104;8.074;2023-11-21T02:28:03;2.10;;;0.90;;
74707;SDS011;63360;50.104;8.074;2023-11-21T02:30:30;1.77;;;0.70;;
74707;SDS011;63360;50.104;8.074;2023-11-21T02:33:00;2.83;;;0.77;;
74707;SDS011;63360;50.104;8.074;2023-11-21T02:35:28;1.90;;;0.60;;
74707;SDS011;63360;50.104;8.074;2023-11-21T02:37:54;1.77;;;0.67;;
74707;SDS011;63360;50.104;8.074;2023-11-21T02:40:21;2.15;;;0.70;;
74707;SDS011;63360;50.104;8.074;2023-11-21T02:42:48;1.88;;;0.52;;
74707;SDS011;63360;50.104;8.074;2023-11-21T02:45:14;1.70;;;0.50;;
74707;SDS011;63360;50.104;8.074;2023-11-21T02:47:43;2.00;;;0.60;;
74707;SDS011;63360;50.104;8.074;2023-11-21T02:50:10;2.50;;;0.77;;
74707;SDS011;63360;50.104;8.074;2023-11-21T02:52:37;1.80;;;0.80;;
74707;SDS011;63360;50.104;8.074;2023-11-21T02:55:03;1.92;;;0.70;;
74707;SDS011;63360;50.104;8.074;2023-11-21T02:57:30;3.20;;;0.93;;
74707;SDS011;63360;50.104;8.074;2023-11-21T02:59:56;2.03;;;0.90;;
74707;SDS011;63360;50.104;8.074;2023-11-21T03:02:23;2.10;;;0.87;;
74707;SDS011;63360;50.104;8.074;2023-11-21T03:04:49;2.17;;;0.90;;
74707;SDS011;63360;50.104;8.074;2023-11-21T03:07:16;2.65;;;1.02;;
74707;SDS011;63360;50.104;8.074;2023-11-21T03:09:43;4.00;;;1.40;;
74707;SDS011;63360;50.104;8.074;2023-11-21T03:12:09;3.67;;;0.98;;
74707;SDS011;63360;50.104;8.074;2023-11-21T03:14:36;2.43;;;1.10;;
74707;SDS011;63360;50.104;8.074;2023-11-21T03:17:02;2.95;;;1.33;;
74707;SDS011;63360;50.104;8.074;2023-11-21T03:19:31;3.03;;;1.10;;
74707;SDS011;63360;50.104;8.074;2023-11-21T03:21:57;3.22;;;1.10;;
74707;SDS011;63360;50.104;8.074;2023-11-21T03:24:23;2.47;;;0.80;;
74707;SDS011;63360;50.104;8.074;2023-11-21T03:26:50;3.73;;;1.27;;
74707;SDS011;63360;50.104;8.074;2023-11-21T03:29:17;4.03;;;1.10;;
74707;SDS011;63360;50.104;8.074;2023-11-21T03:31:43;3.08;;;0.98;;
74707;SDS011;63360;50.104;8.074;2023-11-21T03:34:14;3.47;;;1.10;;
74707;SDS011;63360;50.104;8.074;2023-11-21T03:36:43;2.30;;;0.90;;
74707;SDS011;63360;50.104;8.074;2023-11-21T03:39:09;2.93;;;1.07;;
74707;SDS011;63360;50.104;8.074;2023-11-21T03:41:35;3.90;;;1.20;;
74707;SDS011;63360;50.104;8.074;2023-11-21T03:44:02;3.65;;;1.48;;
74707;SDS011;63360;50.104;8.074;2023-11-21T03:46:28;4.53;;;1.40;;
74707;SDS011;63360;50.104;8.074;2023-11-21T03:48:55;6.03;;;1.70;;
74707;SDS011;63360;50.104;8.074;2023-11-21T03:51:21;6.60;;;2.33;;
74707;SDS011;63360;50.104;8.074;2023-11-21T03:53:48;7.50;;;2.50;;
74707;SDS011;63360;50.104;8.074;2023-11-21T03:56:14;6.93;;;2.42;;
74707;SDS011;63360;50.104;8.074;2023-11-21T03:58:40;7.57;;;2.53;;
74707;SDS011;63360;50.104;8.074;2023-11-21T04:01:07;12.43;;;3.15;;
74707;SDS011;63360;50.104;8.074;2023-11-21T04:03:34;11.00;;;3.10;;
74707;SDS011;63360;50.104;8.074;2023-11-21T04:06:00;11.32;;;3.13;;
74707;SDS011;63360;50.104;8.074;2023-11-21T04:08:27;9.43;;;3.53;;
74707;SDS011;63360;50.104;8.074;2023-11-21T04:10:53;11.15;;;3.63;;
74707;SDS011;63360;50.104;8.074;2023-11-21T04:13:20;16.67;;;4.10;;
74707;SDS011;63360;50.104;8.074;2023-11-21T04:15:46;14.43;;;3.90;;
74707;SDS011;63360;50.104;8.074;2023-11-21T04:18:12;12.05;;;4.15;;
74707;SDS011;63360;50.104;8.074;2023-11-21T04:20:39;15.40;;;3.75;;
74707;SDS011;63360;50.104;8.074;2023-11-21T04:23:05;11.68;;;3.63;;
74707;SDS011;63360;50.104;8.074;2023-11-21T04:25:31;12.77;;;4.03;;
74707;SDS011;63360;50.104;8.074;2023-11-21T04:27:58;13.37;;;3.90;;
74707;SDS011;63360;50.104;8.074;2023-11-21T04:30:24;11.68;;;3.95;;
74707;SDS011;63360;50.104;8.074;2023-11-21T04:32:50;13.35;;;4.30;;
74707;SDS011;63360;50.104;8.074;2023-11-21T04:35:18;12.88;;;4.18;;
74707;SDS011;63360;50.104;8.074;2023-11-21T04:37:44;11.73;;;3.90;;
74707;SDS011;63360;50.104;8.074;2023-11-21T04:40:11;15.23;;;3.80;;
74707;SDS011;63360;50.104;8.074;2023-11-21T04:42:37;13.68;;;4.20;;
74707;SDS011;63360;50.104;8.074;2023-11-21T04:45:04;11.50;;;3.75;;
74707;SDS011;63360;50.104;8.074;2023-11-21T04:47:35;15.98;;;3.78;;
74707;SDS011;63360;50.104;8.074;2023-11-21T04:50:02;19.45;;;4.50;;
74707;SDS011;63360;50.104;8.074;2023-11-21T04:52:30;21.83;;;4.53;;
74707;SDS011;63360;50.104;8.074;2023-11-21T04:54:56;23.02;;;4.60;;
74707;SDS011;63360;50.104;8.074;2023-11-21T04:57:24;31.73;;;4.32;;
74707;SDS011;63360;50.104;8.074;2023-11-21T04:59:50;12.60;;;3.65;;
74707;SDS011;63360;50.104;8.074;2023-11-21T05:02:17;12.13;;;3.85;;
74707;SDS011;63360;50.104;8.074;2023-11-21T05:05:00;15.87;;;3.73;;
74707;SDS011;63360;50.104;8.074;2023-11-21T05:07:27;16.45;;;3.72;;
74707;SDS011;63360;50.104;8.074;2023-11-21T05:09:57;11.35;;;4.20;;
74707;SDS011;63360;50.104;8.074;2023-11-21T05:12:24;11.35;;;3.65;;
74707;SDS011;63360;50.104;8.074;2023-11-21T05:14:50;50.90;;;4.82;;
74707;SDS011;63360;50.104;8.074;2023-11-21T05:17:17;17.23;;;3.97;;
74707;SDS011;63360;50.104;8.074;2023-11-21T05:19:43;27.27;;;3.67;;
74707;SDS011;63360;50.104;8.074;2023-11-21T05:22:15;13.60;;;3.63;;
74707;SDS011;63360;50.104;8.074;2023-11-21T05:24:41;10.73;;;3.47;;
74707;SDS011;63360;50.104;8.074;2023-11-21T05:27:07;11.90;;;3.47;;
74707;SDS011;63360;50.104;8.074;2023-11-21T05:29:35;8.87;;;3.27;;
74707;SDS011;63360;50.104;8.074;2023-11-21T05:32:03;10.93;;;3.25;;
74707;SDS011;63360;50.104;8.074;2023-11-21T05:34:30;9.75;;;3.30;;
74707;SDS011;63360;50.104;8.074;2023-11-21T05:36:56;11.93;;;2.97;;
74707;SDS011;63360;50.104;8.074;2023-11-21T05:39:24;13.95;;;3.33;;
74707;SDS011;63360;50.104;8.074;2023-11-21T05:41:50;9.93;;;3.50;;
74707;SDS011;63360;50.104;8.074;2023-11-21T05:44:17;8.45;;;3.20;;
74707;SDS011;63360;50.104;8.074;2023-11-21T05:46:44;10.13;;;3.67;;
74707;SDS011;63360;50.104;8.074;2023-11-21T05:49:10;11.27;;;3.50;;
74707;SDS011;63360;50.104;8.074;2023-11-21T05:51:37;10.52;;;3.40;;
74707;SDS011;63360;50.104;8.074;2023-11-21T05:54:04;15.07;;;3.53;;
74707;SDS011;63360;50.104;8.074;2023-11-21T05:56:31;12.90;;;3.90;;
74707;SDS011;63360;50.104;8.074;2023-11-21T05:58:57;13.50;;;3.97;;
74707;SDS011;63360;50.104;8.074;2023-11-21T06:01:24;14.10;;;3.63;;
74707;SDS011;63360;50.104;8.074;2023-11-21T06:03:50;23.45;;;3.72;;
74707;SDS011;63360;50.104;8.074;2023-11-21T06:06:17;30.77;;;3.83;;
74707;SDS011;63360;50.104;8.074;2023-11-21T06:08:45;17.02;;;3.53;;
74707;SDS011;63360;50.104;8.074;2023-11-21T06:11:11;21.55;;;3.95;;
74707;SDS011;63360;50.104;8.074;2023-11-21T06:13:38;23.25;;;4.07;;
74707;SDS011;63360;50.104;8.074;2023-11-21T06:16:04;13.40;;;3.17;;
74707;SDS011;63360;50.104;8.074;2023-11-21T06:18:31;12.90;;;3.77;;
74707;SDS011;63360;50.104;8.074;2023-11-21T06:20:57;8.25;;;2.55;;
74707;SDS011;63360;50.104;8.074;2023-11-21T06:23:26;7.15;;;2.65;;
74707;SDS011;63360;50.104;8.074;2023-11-21T06:25:53;7.95;;;2.95;;
74707;SDS011;63360;50.104;8.074;2023-11-21T06:28:19;6.60;;;2.78;;
74707;SDS011;63360;50.104;8.074;2023-11-21T06:30:45;5.60;;;2.40;;
74707;SDS011;63360;50.104;8.074;2023-11-21T06:33:12;5.97;;;2.40;;
74707;SDS011;63360;50.104;8.074;2023-11-21T06:35:38;5.63;;;2.15;;
74707;SDS011;63360;50.104;8.074;2023-11-21T06:38:06;5.55;;;1.70;;
74707;SDS011;63360;50.104;8.074;2023-11-21T06:40:32;3.53;;;1.60;;
74707;SDS011;63360;50.104;8.074;2023-11-21T06:43:00;3.87;;;1.57;;
74707;SDS011;63360;50.104;8.074;2023-11-21T06:45:26;3.75;;;1.80;;
74707;SDS011;63360;50.104;8.074;2023-11-21T06:47:52;5.25;;;2.13;;
74707;SDS011;63360;50.104;8.074;2023-11-21T06:50:19;4.88;;;2.20;;
74707;SDS011;63360;50.104;8.074;2023-11-21T06:52:46;4.15;;;2.00;;
74707;SDS011;63360;50.104;8.074;2023-11-21T06:55:12;6.50;;;2.07;;
74707;SDS011;63360;50.104;8.074;2023-11-21T06:57:39;5.20;;;2.30;;
74707;SDS011;63360;50.104;8.074;2023-11-21T07:00:05;5.35;;;1.95;;
74707;SDS011;63360;50.104;8.074;2023-11-21T07:02:35;4.57;;;2.08;;
74707;SDS011;63360;50.104;8.074;2023-11-21T07:05:01;5.95;;;2.40;;
74707;SDS011;63360;50.104;8.074;2023-11-21T07:07:28;5.17;;;2.20;;
74707;SDS011;63360;50.104;8.074;2023-11-21T07:09:54;4.07;;;2.13;;
74707;SDS011;63360;50.104;8.074;2023-11-21T07:12:21;5.32;;;2.20;;
74707;SDS011;63360;50.104;8.074;2023-11-21T07:14:49;5.97;;;2.05;;
74707;SDS011;63360;50.104;8.074;2023-11-21T07:17:16;5.25;;;2.28;;
74707;SDS011;63360;50.104;8.074;2023-11-21T07:19:43;5.47;;;2.00;;
74707;SDS011;63360;50.104;8.074;2023-11-21T07:22:10;5.07;;;2.40;;
74707;SDS011;63360;50.104;8.074;2023-11-21T07:24:36;4.45;;;1.80;;
74707;SDS011;63360;50.104;8.074;2023-11-21T07:27:03;4.10;;;2.00;;
74707;SDS011;63360;50.104;8.074;2023-11-21T07:29:30;6.63;;;2.28;;
74707;SDS011;63360;50.104;8.074;2023-11-21T07:31:56;4.50;;;2.03;;
74707;SDS011;63360;50.104;8.074;2023-11-21T07:34:23;5.43;;;1.90;;
74707;SDS011;63360;50.104;8.074;2023-11-21T07:36:50;5.88;;;2.10;;
74707;SDS011;63360;50.104;8.074;2023-11-21T07:39:16;6.10;;;2.05;;
74707;SDS011;63360;50.104;8.074;2023-11-21T07:41:42;6.53;;;2.20;;
74707;SDS011;63360;50.104;8.074;2023-11-21T07:44:15;6.43;;;2.47;;
74707;SDS011;63360;50.104;8.074;2023-11-21T07:46:43;7.03;;;2.38;;
74707;SDS011;63360;50.104;8.074;2023-11-21T07:49:10;5.95;;;2.83;;
74707;SDS011;63360;50.104;8.074;2023-11-21T07:51:37;7.07;;;2.65;;
74707;SDS011;63360;50.104;8.074;2023-11-21T07:54:03;7.20;;;2.60;;
74707;SDS011;63360;50.104;8.074;2023-11-21T07:56:29;8.03;;;2.60;;
74707;SDS011;63360;50.104;8.074;2023-11-21T07:58:56;7.38;;;2.50;;
74707;SDS011;63360;50.104;8.074;2023-11-21T08:01:22;6.38;;;2.90;;
74707;SDS011;63360;50.104;8.074;2023-11-21T08:03:49;6.65;;;2.67;;
74707;SDS011;63360;50.104;8.074;2023-11-21T08:06:18;5.53;;;2.42;;
74707;SDS011;63360;50.104;8.074;2023-11-21T08:08:44;7.17;;;2.70;;
74707;SDS011;63360;50.104;8.074;2023-11-21T08:11:11;12.48;;;3.10;;
74707;SDS011;63360;50.104;8.074;2023-11-21T08:13:38;6.55;;;3.00;;
74707;SDS011;63360;50.104;8.074;2023-11-21T08:16:04;7.80;;;2.72;;
74707;SDS011;63360;50.104;8.074;2023-11-21T08:18:33;7.97;;;3.00;;
74707;SDS011;63360;50.104;8.074;2023-11-21T08:21:00;8.70;;;3.07;;
74707;SDS011;63360;50.104;8.074;2023-11-21T08:23:26;7.05;;;2.80;;
74707;SDS011;63360;50.104;8.074;2023-11-21T08:25:53;7.57;;;2.78;;
74707;SDS011;63360;50.104;8.074;2023-11-21T08:28:19;7.97;;;2.85;;
74707;SDS011;63360;50.104;8.074;2023-11-21T08:30:48;5.75;;;2.50;;
74707;SDS011;63360;50.104;8.074;2023-11-21T08:33:14;6.37;;;2.47;;
74707;SDS011;63360;50.104;8.074;2023-11-21T08:35:41;6.32;;;3.08;;
74707;SDS011;63360;50.104;8.074;2023-11-21T08:38:07;8.63;;;2.67;;
74707;SDS011;63360;50.104;8.074;2023-11-21T08:40:36;5.47;;;2.38;;
74707;SDS011;63360;50.104;8.074;2023-11-21T08:43:02;5.57;;;2.40;;
74707;SDS011;63360;50.104;8.074;2023-11-21T08:45:30;6.37;;;2.30;;
74707;SDS011;63360;50.104;8.074;2023-11-21T08:47:58;9.50;;;2.80;;
74707;SDS011;63360;50.104;8.074;2023-11-21T08:50:24;5.88;;;2.60;;
74707;SDS011;63360;50.104;8.074;2023-11-21T08:52:51;6.50;;;2.55;;
74707;SDS011;63360;50.104;8.074;2023-11-21T08:55:17;7.18;;;2.65;;
74707;SDS011;63360;50.104;8.074;2023-11-21T08:57:46;6.97;;;2.63;;
74707;SDS011;63360;50.104;8.074;2023-11-21T09:00:13;6.55;;;2.60;;
74707;SDS011;63360;50.104;8.074;2023-11-21T09:02:42;7.90;;;2.65;;
74707;SDS011;63360;50.104;8.074;2023-11-21T09:05:10;8.40;;;2.58;;
74707;SDS011;63360;50.104;8.074;2023-11-21T09:07:38;7.05;;;2.60;;
74707;SDS011;63360;50.104;8.074;2023-11-21T09:10:05;4.63;;;2.20;;
74707;SDS011;63360;50.104;8.074;2023-11-21T09:12:35;6.10;;;2.20;;
74707;SDS011;63360;50.104;8.074;2023-11-21T09:15:06;6.68;;;2.38;;
74707;SDS011;63360;50.104;8.074;2023-11-21T09:17:34;6.35;;;2.17;;
74707;SDS011;63360;50.104;8.074;2023-11-21T09:20:01;5.45;;;2.00;;
74707;SDS011;63360;50.104;8.074;2023-11-21T09:22:30;7.27;;;2.47;;
74707;SDS011;63360;50.104;8.074;2023-11-21T09:24:57;6.25;;;2.55;;
74707;SDS011;63360;50.104;8.074;2023-11-21T09:27:24;5.45;;;2.53;;
74707;SDS011;63360;50.104;8.074;2023-11-21T09:29:51;5.78;;;2.30;;
74707;SDS011;63360;50.104;8.074;2023-11-21T09:32:19;7.03;;;2.55;;
74707;SDS011;63360;50.104;8.074;2023-11-21T09:34:48;9.13;;;2.80;;
74707;SDS011;63360;50.104;8.074;2023-11-21T09:37:15;7.80;;;2.95;;
74707;SDS011;63360;50.104;8.074;2023-11-21T09:39:42;6.65;;;2.47;;
74707;SDS011;63360;50.104;8.074;2023-11-21T09:47:32;51.60;;;6.17;;
74707;SDS011;63360;50.104;8.074;2023-11-21T09:50:02;7.43;;;3.20;;
74707;SDS011;63360;50.104;8.074;2023-11-21T09:52:29;8.73;;;3.13;;
74707;SDS011;63360;50.104;8.074;2023-11-21T09:54:58;9.73;;;2.97;;
74707;SDS011;63360;50.104;8.074;2023-11-21T09:57:26;7.95;;;3.20;;
74707;SDS011;63360;50.104;8.074;2023-11-21T09:59:54;6.27;;;2.57;;
74707;SDS011;63360;50.104;8.074;2023-11-21T10:02:29;9.00;;;2.70;;
74707;SDS011;63360;50.104;8.074;2023-11-21T10:04:57;8.85;;;2.92;;
74707;SDS011;63360;50.104;8.074;2023-11-21T10:07:26;7.85;;;2.70;;
74707;SDS011;63360;50.104;8.074;2023-11-21T10:09:54;9.45;;;3.13;;
74707;SDS011;63360;50.104;8.074;2023-11-21T10:12:21;8.73;;;3.07;;
74707;SDS011;63360;50.104;8.074;2023-11-21T10:14:49;7.78;;;3.05;;
74707;SDS011;63360;50.104;8.074;2023-11-21T10:17:19;8.90;;;3.45;;
74707;SDS011;63360;50.104;8.074;2023-11-21T10:19:48;7.85;;;2.80;;
74707;SDS011;63360;50.104;8.074;2023-11-21T10:22:16;6.25;;;2.85;;
74707;SDS011;63360;50.104;8.074;2023-11-21T10:24:43;7.20;;;2.60;;
74707;SDS011;63360;50.104;8.074;2023-11-21T10:27:19;10.73;;;2.90;;
74707;SDS011;63360;50.104;8.074;2023-11-21T10:29:45;8.77;;;2.67;;
74707;SDS011;63360;50.104;8.074;2023-11-21T10:32:11;7.60;;;3.03;;
74707;SDS011;63360;50.104;8.074;2023-11-21T10:34:38;9.20;;;3.10;;
74707;SDS011;63360;50.104;8.074;2023-11-21T10:37:11;8.03;;;2.70;;
74707;SDS011;63360;50.104;8.074;2023-11-21T10:39:38;9.65;;;2.60;;
74707;SDS011;63360;50.104;8.074;2023-11-21T10:42:07;8.77;;;2.80;;
74707;SDS011;63360;50.104;8.074;2023-11-21T10:44:34;8.32;;;3.20;;
74707;SDS011;63360;50.104;8.074;2023-11-21T10:47:00;7.85;;;2.70;;
74707;SDS011;63360;50.104;8.074;2023-11-21T10:49:28;7.83;;;2.67;;
74707;SDS011;63360;50.104;8.074;2023-11-21T10:51:55;5.65;;;2.42;;
74707;SDS011;63360;50.104;8.074;2023-11-21T10:54:25;5.60;;;2.45;;
74707;SDS011;63360;50.104;8.074;2023-11-21T10:56:59;8.18;;;2.70;;
74707;SDS011;63360;50.104;8.074;2023-11-21T10:59:30;5.85;;;2.30;;
74707;SDS011;63360;50.104;8.074;2023-11-21T11:01:59;5.93;;;2.27;;
74707;SDS011;63360;50.104;8.074;2023-11-21T11:04:29;5.63;;;2.42;;
74707;SDS011;63360;50.104;8.074;2023-11-21T11:07:02;8.15;;;2.70;;
74707;SDS011;63360;50.104;8.074;2023-11-21T11:09:31;4.80;;;2.10;;
74707;SDS011;63360;50.104;8.074;2023-11-21T11:12:02;6.57;;;2.30;;
74707;SDS011;63360;50.104;8.074;2023-11-21T11:14:31;5.63;;;2.37;;
74707;SDS011;63360;50.104;8.074;2023-11-21T11:16:58;6.18;;;2.80;;
74707;SDS011;63360;50.104;8.074;2023-11-21T11:19:27;5.15;;;2.35;;
74707;SDS011;63360;50.104;8.074;2023-11-21T11:25:03;8.48;;;3.05;;
74707;SDS011;63360;50.104;8.074;2023-11-21T11:30:28;7.88;;;3.08;;
74707;SDS011;63360;50.104;8.074;2023-11-21T11:33:21;6.25;;;2.50;;
74707;SDS011;63360;50.104;8.074;2023-11-21T11:36:04;6.47;;;2.83;;
74707;SDS011;63360;50.104;8.074;2023-11-21T11:38:34;5.47;;;2.65;;
74707;SDS011;63360;50.104;8.074;2023-11-21T11:41:02;7.10;;;2.67;;
74707;SDS011;63360;50.104;8.074;2023-11-21T11:43:30;7.68;;;3.00;;
74707;SDS011;63360;50.104;8.074;2023-11-21T11:46:10;5.80;;;2.83;;
74707;SDS011;63360;50.104;8.074;2023-11-21T11:48:41;9.82;;;3.25;;
74707;SDS011;63360;50.104;8.074;2023-11-21T11:51:11;7.25;;;3.00;;
74707;SDS011;63360;50.104;8.074;2023-11-21T11:53:47;6.53;;;3.00;;
74707;SDS011;63360;50.104;8.074;2023-11-21T11:58:56;5.80;;;2.50;;
74707;SDS011;63360;50.104;8.074;2023-11-21T12:01:29;6.97;;;2.80;;
74707;SDS011;63360;50.104;8.074;2023-11-21T12:06:37;6.60;;;2.60;;
74707;SDS011;63360;50.104;8.074;2023-11-21T12:09:03;6.63;;;2.70;;
74707;SDS011;63360;50.104;8.074;2023-11-21T12:11:32;7.72;;;2.97;;
74707;SDS011;63360;50.104;8.074;2023-11-21T12:14:01;7.07;;;2.95;;
74707;SDS011;63360;50.104;8.074;2023-11-21T12:16:28;6.35;;;2.90;;
74707;SDS011;63360;50.104;8.074;2023-11-21T12:18:54;6.10;;;2.77;;
74707;SDS011;63360;50.104;8.074;2023-11-21T12:21:21;6.38;;;2.70;;
74707;SDS011;63360;50.104;8.074;2023-11-21T12:23:48;7.07;;;3.20;;
74707;SDS011;63360;50.104;8.074;2023-11-21T12:26:14;7.95;;;3.45;;
74707;SDS011;63360;50.104;8.074;2023-11-21T12:28:41;6.65;;;3.22;;
74707;SDS011;63360;50.104;8.074;2023-11-21T12:31:07;8.27;;;3.33;;
74707;SDS011;63360;50.104;8.074;2023-11-21T12:33:47;8.65;;;3.70;;
74707;SDS011;63360;50.104;8.074;2023-11-21T12:36:14;8.23;;;3.83;;
74707;SDS011;63360;50.104;8.074;2023-11-21T12:38:41;8.98;;;3.20;;
74707;SDS011;63360;50.104;8.074;2023-11-21T12:41:09;7.85;;;3.40;;
74707;SDS011;63360;50.104;8.074;2023-11-21T12:43:36;8.17;;;3.40;;
74707;SDS011;63360;50.104;8.074;2023-11-21T12:46:08;8.88;;;3.40;;
74707;SDS011;63360;50.104;8.074;2023-11-21T12:48:38;10.65;;;4.22;;
74707;SDS011;63360;50.104;8.074;2023-11-21T12:51:12;7.82;;;3.47;;
74707;SDS011;63360;50.104;8.074;2023-11-21T12:53:42;8.45;;;3.70;;
74707;SDS011;63360;50.104;8.074;2023-11-21T12:56:12;7.47;;;3.27;;
74707;SDS011;63360;50.104;8.074;2023-11-21T12:58:39;10.25;;;3.83;;
74707;SDS011;63360;50.104;8.074;2023-11-21T13:01:07;12.55;;;4.13;;
74707;SDS011;63360;50.104;8.074;2023-11-21T13:03:38;11.63;;;3.90;;
74707;SDS011;63360;50.104;8.074;2023-11-21T13:06:06;9.10;;;4.45;;
74707;SDS011;63360;50.104;8.074;2023-11-21T13:08:36;9.13;;;3.83;;
74707;SDS011;63360;50.104;8.074;2023-11-21T13:11:05;9.50;;;3.38;;
74707;SDS011;63360;50.104;8.074;2023-11-21T13:13:32;7.90;;;3.58;;
74707;SDS011;63360;50.104;8.074;2023-11-21T13:15:59;10.27;;;3.97;;
74707;SDS011;63360;50.104;8.074;2023-11-21T13:18:28;8.63;;;4.20;;
74707;SDS011;63360;50.104;8.074;2023-11-21T13:20:56;8.73;;;3.73;;
74707;SDS011;63360;50.104;8.074;2023-11-21T13:23:24;8.75;;;3.85;;
74707;SDS011;63360;50.104;8.074;2023-11-21T13:25:51;8.70;;;3.60;;
74707;SDS011;63360;50.104;8.074;2023-11-21T13:28:31;9.20;;;3.90;;
74707;SDS011;63360;50.104;8.074;2023-11-21T13:31:00;9.18;;;3.50;;
74707;SDS011;63360;50.104;8.074;2023-11-21T13:33:35;9.00;;;3.90;;
74707;SDS011;63360;50.104;8.074;2023-11-21T13:36:04;10.02;;;4.45;;
74707;SDS011;63360;50.104;8.074;2023-11-21T13:38:33;11.40;;;4.20;;
74707;SDS011;63360;50.104;8.074;2023-11-21T13:41:01;14.13;;;4.15;;
74707;SDS011;63360;50.104;8.074;2023-11-21T13:43:29;12.35;;;3.67;;
74707;SDS011;63360;50.104;8.074;2023-11-21T13:45:56;8.97;;;3.70;;
74707;SDS011;63360;50.104;8.074;2023-11-21T13:48:29;10.85;;;3.70;;
74707;SDS011;63360;50.104;8.074;2023-11-21T13:51:06;9.40;;;3.53;;
74707;SDS011;63360;50.104;8.074;2023-11-21T13:53:44;12.70;;;3.60;;
74707;SDS011;63360;50.104;8.074;2023-11-21T13:56:14;9.77;;;3.80;;
74707;SDS011;63360;50.104;8.074;2023-11-21T13:58:45;9.93;;;3.73;;
74707;SDS011;63360;50.104;8.074;2023-11-21T14:01:19;11.25;;;3.70;;
74707;SDS011;63360;50.104;8.074;2023-11-21T14:03:56;10.32;;;3.63;;
74707;SDS011;63360;50.104;8.074;2023-11-21T14:06:28;10.13;;;3.80;;
74707;SDS011;63360;50.104;8.074;2023-11-21T14:09:00;9.25;;;3.83;;
74707;SDS011;63360;50.104;8.074;2023-11-21T14:11:31;9.57;;;3.70;;
74707;SDS011;63360;50.104;8.074;2023-11-21T14:14:04;8.48;;;3.67;;
74707;SDS011;63360;50.104;8.074;2023-11-21T14:16:31;8.68;;;3.85;;
74707;SDS011;63360;50.104;8.074;2023-11-21T14:18:58;10.20;;;4.15;;
74707;SDS011;63360;50.104;8.074;2023-11-21T14:21:41;10.98;;;3.85;;
74707;SDS011;63360;50.104;8.074;2023-11-21T14:24:12;8.87;;;3.47;;
74707;SDS011;63360;50.104;8.074;2023-11-21T14:26:42;10.77;;;3.95;;
74707;SDS011;63360;50.104;8.074;2023-11-21T14:29:09;10.77;;;3.38;;
74707;SDS011;63360;50.104;8.074;2023-11-21T14:31:38;9.75;;;3.67;;
74707;SDS011;63360;50.104;8.074;2023-11-21T14:34:05;9.27;;;4.20;;
74707;SDS011;63360;50.104;8.074;2023-11-21T14:36:33;11.40;;;3.90;;
74707;SDS011;63360;50.104;8.074;2023-11-21T14:39:00;10.05;;;3.83;;
74707;SDS011;63360;50.104;8.074;2023-11-21T14:41:27;11.75;;;3.75;;
74707;SDS011;63360;50.104;8.074;2023-11-21T14:43:55;9.48;;;3.90;;
74707;SDS011;63360;50.104;8.074;2023-11-21T14:46:23;8.93;;;3.63;;
74707;SDS011;63360;50.104;8.074;2023-11-21T14:48:49;11.10;;;3.37;;
74707;SDS011;63360;50.104;8.074;2023-11-21T14:51:33;9.05;;;3.65;;
74707;SDS011;63360;50.104;8.074;2023-11-21T14:54:19;11.15;;;3.70;;
74707;SDS011;63360;50.104;8.074;2023-11-21T14:56:57;10.35;;;3.75;;
74707;SDS011;63360;50.104;8.074;2023-11-21T14:59:23;9.15;;;3.70;;
74707;SDS011;63360;50.104;8.074;2023-11-21T15:01:50;8.03;;;3.30;;
74707;SDS011;63360;50.104;8.074;2023-11-21T15:04:22;9.02;;;4.10;;
74707;SDS011;63360;50.104;8.074;2023-11-21T15:07:03;8.95;;;4.00;;